Etusivu
METAR-TAF:

METAR-TAF

Lentoasemat :

West Memphis, Arkansas, Yhdysvallat

Leveyspiiri: 35-08N, Pituuspiiri: 090-14W, korkeus merenpinnasta: 65 m

Tämänhetkinen sää

Tämä raportti tehtiin 33 minuuttia sitten, kello 23.53 UTC
Tuuli 3 kn pohjoisesta
Lämpötila 13°C
Kosteus 100%
Ilmanpaine 1016 hPa
Näkyvyys: 11.3 km
Muutamia pilviä 400 ft:n korkeudessa
Pilvistä 900 ft:n korkeudessa
heikkoa sadetta

METAR: KAWM 272353Z AUTO 01003KT 7SM -RA FEW004 OVC009 13/13 A3000 RMK AO2 SLP157 P0003 60057 T01330128 10144 20128 53006 $

Aika: 18:26 (00:26 UTC)


TAF: puuttuu

Säähavainnot ja -ennusteet yli 4000 lentoasemalta (METAR- ja TAF-raportit).

Käytössä olevat sääasemat on merkitty karttaan keltaisilla ja punaisilla pisteillä.

Aseta hiiri pisteen päälle nähdäksesi sääaseman nimen.

Klikkaa sitten nähdäksesi säähavainnot ja -ennusteet.

Kartan vaihtaminen: klikkaa mustalla rastilla varustettuja vihreitä pisteitä, niin voit zoomata sisään; viivalla varustettua vihreää pistettä, niin voit zoomata ulos tai vihreitä nuolia, niin pääset viereisille kartoille.


METAR-TAF: